Terminal Aerodrome Forecast
Issued by NWS

Home | Current Version | Previous Version | Text Only | Print | Product List | Glossary On
Versions: 1 2 3 4 5 6 7 8 9 10 11 12 13 14 15 16
000
FTUS43 KSGF 240500
TAFBBG
TAF
KBBG 240522Z 2406/2506 14011KT P6SM SCT150 BKN200 WS018/18045KT
     FM241500 16014G23KT 6SM -SHRA BR VCTS BKN050CB OVC070
      TEMPO 2415/2419 4SM TSRA BR OVC040CB
     FM241900 19015G24KT 6SM -SHRA BR VCTS BKN040CB OVC080
      TEMPO 2419/2423 4SM TSRA BR BKN030CB
     FM250000 28010KT P6SM SCT080=

USA.gov is the U.S. government's official web portal to all federal, state and local government web resources and services.